createdAt,value
2018-07-26T17:21:14.941Z,20.10
2018-07-26T17:23:43.820Z,30.50
2018-07-26T17:26:11.907Z,30.30
2018-07-26T17:28:40.005Z,30.30
2018-07-26T17:31:08.109Z,30.30
2018-07-26T17:33:36.208Z,30.20
2018-07-26T17:36:04.255Z,30.20
2018-07-26T17:38:32.381Z,30.10
2018-07-26T17:41:00.537Z,29.90
2018-07-26T17:43:28.601Z,29.90
2018-07-26T17:45:56.701Z,29.80
2018-07-26T17:48:24.919Z,29.80
2018-07-26T17:50:54.837Z,29.80
2018-07-26T17:53:22.929Z,29.80
2018-07-26T17:58:19.016Z,29.60
2018-07-26T18:00:47.078Z,29.60
2018-07-26T18:03:15.229Z,29.50
2018-07-26T18:05:43.313Z,29.50
2018-07-26T18:08:11.972Z,29.40
2018-07-26T18:10:40.755Z,29.30
2018-07-26T18:13:08.829Z,29.20
2018-07-26T18:15:37.084Z,29.20
2018-07-26T18:18:05.199Z,29.20
2018-07-26T18:20:33.263Z,29.20
2018-07-26T18:23:01.329Z,29.10
2018-07-26T18:25:29.422Z,29.10
2018-07-26T18:27:57.547Z,29.00
2018-07-26T18:30:25.644Z,29.00
2018-07-26T18:32:54.282Z,28.90
2018-07-26T18:35:22.409Z,28.80
2018-07-26T18:37:50.522Z,28.80
2018-07-26T18:40:18.597Z,28.70
2018-07-26T18:42:47.460Z,28.70
2018-07-26T18:45:15.543Z,28.60
2018-07-26T18:47:43.613Z,28.60
2018-07-26T18:50:12.051Z,28.50
2018-07-26T18:55:09.679Z,28.40
2018-07-26T18:57:38.007Z,28.30
2018-07-26T19:00:10.086Z,28.30
2018-07-26T19:02:38.171Z,28.20
2018-07-26T19:05:06.812Z,28.10
2018-07-26T19:07:35.452Z,28.10
2018-07-26T19:10:04.441Z,28.00
2018-07-26T19:12:32.519Z,28.00
2018-07-26T19:15:00.607Z,27.90
2018-07-26T19:17:28.752Z,27.80
2018-07-26T19:19:56.765Z,27.70
2018-07-26T19:22:25.458Z,27.60
2018-07-26T19:27:22.629Z,27.40
2018-07-26T19:29:51.310Z,27.40
2018-07-26T19:32:23.828Z,27.20
2018-07-26T19:34:52.770Z,27.20
2018-07-26T19:37:20.913Z,27.10
2018-07-26T19:39:49.621Z,27.00
2018-07-26T19:42:18.024Z,27.00
2018-07-26T19:44:46.494Z,26.90
2018-07-26T19:47:14.621Z,26.80
2018-07-26T19:49:55.845Z,26.80
2018-07-26T19:52:24.056Z,26.70
2018-07-26T20:00:42.318Z,26.60
2018-07-26T20:03:12.281Z,26.50
2018-07-26T20:05:52.073Z,26.30
2018-07-26T20:08:20.182Z,26.20
2018-07-26T20:10:48.581Z,26.20
2018-07-26T20:15:46.229Z,26.00
2018-07-26T20:18:14.716Z,26.00
2018-07-26T20:20:42.797Z,25.90
2018-07-26T20:23:11.692Z,25.80
2018-07-26T20:25:41.031Z,25.80
2018-07-26T20:28:10.716Z,25.70
2018-07-26T20:30:38.815Z,25.70
2018-07-26T20:33:07.470Z,25.60
2018-07-26T20:35:36.353Z,25.60
2018-07-26T20:38:04.845Z,25.60
2018-07-26T20:40:34.217Z,25.50
2018-07-26T20:43:02.273Z,25.40
2018-07-26T20:45:38.457Z,25.40
2018-07-26T20:48:06.873Z,25.40
2018-07-26T20:50:35.003Z,25.30
2018-07-26T20:53:03.056Z,25.20
2018-07-26T20:55:32.037Z,25.20
2018-07-26T20:58:00.157Z,25.10
2018-07-26T21:02:56.920Z,25.00
2018-07-26T21:05:25.096Z,24.90
2018-07-26T21:07:53.124Z,24.90
2018-07-26T21:10:21.265Z,24.80
2018-07-26T21:12:50.040Z,24.80
2018-07-26T21:15:18.093Z,24.70
2018-07-26T21:17:46.177Z,24.70
2018-07-26T21:20:14.240Z,24.70
2018-07-26T21:25:10.149Z,24.60
2018-07-26T21:27:38.218Z,24.50
2018-07-26T21:30:07.996Z,24.50
2018-07-26T21:32:36.141Z,24.40
2018-07-26T21:40:00.522Z,24.40
2018-07-26T21:42:28.580Z,24.30
2018-07-26T21:44:56.667Z,24.20
2018-07-26T21:47:24.772Z,24.20
2018-07-26T21:49:52.844Z,24.20
2018-07-26T21:52:20.889Z,24.10
2018-07-26T21:54:48.957Z,24.10
2018-07-26T21:57:17.023Z,24.00
2018-07-26T21:59:45.098Z,24.00
2018-07-26T22:02:13.944Z,24.00
2018-07-26T22:04:42.313Z,23.90
2018-07-26T22:07:10.366Z,23.90
2018-07-26T22:12:06.437Z,23.80
2018-07-26T22:14:38.168Z,23.80
2018-07-26T22:17:08.021Z,23.80
2018-07-26T22:19:37.181Z,23.80
2018-07-26T22:22:05.217Z,23.80
2018-07-26T22:24:33.284Z,23.80
2018-07-26T22:27:01.429Z,23.70
2018-07-26T22:29:30.662Z,23.70
2018-07-26T22:31:58.730Z,23.70
2018-07-26T22:34:26.828Z,23.70
2018-07-26T22:36:54.899Z,23.60
2018-07-26T22:39:24.079Z,23.60
2018-07-26T22:41:52.141Z,23.60
2018-07-26T22:44:20.239Z,23.60
2018-07-26T22:46:49.201Z,23.50
2018-07-26T22:49:17.266Z,23.50
2018-07-26T22:51:46.072Z,23.40
2018-07-26T22:54:14.130Z,23.30
2018-07-26T22:56:42.225Z,23.30
2018-07-26T22:59:10.980Z,23.20
2018-07-26T23:01:39.144Z,23.20
2018-07-26T23:04:07.202Z,23.20
2018-07-26T23:06:35.265Z,23.20
2018-07-26T23:09:03.764Z,23.10
2018-07-26T23:11:31.888Z,23.10
2018-07-26T23:13:59.940Z,23.10
2018-07-26T23:16:28.023Z,23.00
2018-07-26T23:18:56.090Z,23.00
2018-07-26T23:21:24.260Z,23.00
2018-07-26T23:23:53.945Z,23.00
2018-07-26T23:26:22.064Z,22.90
2018-07-26T23:28:50.136Z,22.90
2018-07-26T23:31:18.241Z,22.80
2018-07-26T23:33:46.339Z,22.80
2018-07-26T23:36:15.712Z,22.80
2018-07-26T23:41:52.758Z,22.70
2018-07-26T23:44:22.039Z,22.60
2018-07-26T23:46:51.186Z,22.60
2018-07-26T23:49:19.315Z,22.50
2018-07-26T23:51:47.416Z,22.50
2018-07-26T23:54:15.509Z,22.40
2018-07-26T23:56:43.954Z,22.40
2018-07-26T23:59:12.089Z,22.40
